Time;durP1;ratioP1;P1;durP2;ratioP2;P2;SDS_P1;SDS_P2;PMS_P1;PMS_P2;Temp;Humidity;BMP_temperature;BMP_pressure;BME280_temperature;BME280_humidity;BME280_pressure;Samples;Min_cycle;Max_cycle;Signal;HPM_P1;HPM_P2
2023/12/11 00:02:16;;;;;;;15.90;9.93;;;;;;;;;;6020849;29;20306;-68
2023/12/11 00:05:20;;;;;;;17.20;10.23;;;;;;;;;;6020903;29;20305;-67
2023/12/11 00:08:24;;;;;;;16.40;10.13;;;;;;;;;;6020704;29;20313;-68
2023/12/11 00:11:28;;;;;;;17.60;9.80;;;;;;;;;;6025495;29;20467;-68
2023/12/11 00:14:32;;;;;;;14.33;9.03;;;;;;;;;;5998694;29;20302;-68
2023/12/11 00:17:37;;;;;;;16.00;9.50;;;;;;;;;;5998624;29;20302;-68
2023/12/11 00:20:42;;;;;;;15.43;9.60;;;;;;;;;;5997556;29;20501;-69
2023/12/11 00:23:46;;;;;;;13.10;9.43;;;;;;;;;;5998330;29;20294;-69
2023/12/11 00:26:50;;;;;;;14.70;8.93;;;;;;;;;;5998709;29;20305;-68
2023/12/11 00:29:54;;;;;;;20.27;10.07;;;;;;;;;;5998190;29;20301;-68
2023/12/11 00:32:59;;;;;;;15.13;9.00;;;;;;;;;;5998399;29;20321;-68
2023/12/11 00:36:04;;;;;;;13.17;9.13;;;;;;;;;;5997503;29;20306;-68
2023/12/11 00:39:08;;;;;;;12.67;9.17;;;;;;;;;;5997763;29;20574;-69
2023/12/11 00:42:12;;;;;;;15.47;9.53;;;;;;;;;;5995257;29;20598;-69
2023/12/11 00:45:16;;;;;;;14.33;9.00;;;;;;;;;;5997917;29;20306;-68
2023/12/11 00:48:21;;;;;;;16.07;9.27;;;;;;;;;;5998326;29;20298;-68
2023/12/11 00:51:25;;;;;;;15.90;9.37;;;;;;;;;;5997617;29;20302;-68
2023/12/11 00:54:29;;;;;;;14.47;9.53;;;;;;;;;;5997950;29;20300;-68
2023/12/11 00:57:33;;;;;;;14.83;9.77;;;;;;;;;;5998210;29;20305;-68
2023/12/11 01:00:37;;;;;;;12.57;8.97;;;;;;;;;;6013745;29;20309;-69
2023/12/11 01:03:42;;;;;;;14.77;9.67;;;;;;;;;;6020306;29;20452;-68
2023/12/11 01:06:46;;;;;;;14.53;9.60;;;;;;;;;;6010113;29;20297;-68
2023/12/11 01:09:50;;;;;;;17.47;10.30;;;;;;;;;;6020137;29;20598;-68
2023/12/11 01:12:56;;;;;;;14.80;8.70;;;;;;;;;;6014162;29;20462;-68
2023/12/11 01:16:00;;;;;;;13.93;9.03;;;;;;;;;;5995835;29;20309;-68
2023/12/11 01:19:05;;;;;;;15.80;10.17;;;;;;;;;;6003435;29;20619;-68
2023/12/11 01:22:09;;;;;;;15.43;9.13;;;;;;;;;;5998028;29;20322;-69
2023/12/11 01:25:13;;;;;;;13.40;8.67;;;;;;;;;;5997474;29;20310;-68
2023/12/11 01:28:17;;;;;;;14.70;8.60;;;;;;;;;;6007371;29;20321;-68
2023/12/11 01:31:21;;;;;;;14.20;8.87;;;;;;;;;;6019943;29;20322;-68
2023/12/11 01:34:26;;;;;;;19.50;9.87;;;;;;;;;;6019765;29;20300;-68
2023/12/11 01:37:30;;;;;;;12.57;8.93;;;;;;;;;;6019653;29;20570;-68
2023/12/11 01:40:35;;;;;;;18.47;10.17;;;;;;;;;;6020179;29;20309;-68
2023/12/11 01:43:39;;;;;;;15.40;9.57;;;;;;;;;;6020064;29;20300;-70
2023/12/11 01:46:42;;;;;;;13.70;8.77;;;;;;;;;;6022920;29;20298;-69
2023/12/11 01:49:48;;;;;;;15.23;8.57;;;;;;;;;;6038034;29;20297;-68
2023/12/11 01:52:52;;;;;;;13.97;8.83;;;;;;;;;;6024155;29;20297;-68
2023/12/11 01:55:56;;;;;;;19.47;9.37;;;;;;;;;;6024275;29;20309;-69
2023/12/11 01:59:00;;;;;;;15.87;9.27;;;;;;;;;;6013767;29;20313;-69
2023/12/11 02:02:04;;;;;;;18.90;10.20;;;;;;;;;;6024691;29;20302;-68
2023/12/11 02:05:10;;;;;;;17.93;8.77;;;;;;;;;;6023543;29;20309;-68
2023/12/11 02:08:15;;;;;;;14.37;9.40;;;;;;;;;;6023945;29;20313;-68
2023/12/11 02:11:20;;;;;;;17.10;9.37;;;;;;;;;;6015621;29;20298;-68
2023/12/11 02:14:24;;;;;;;17.53;10.03;;;;;;;;;;6000967;29;20584;-69
2023/12/11 02:17:28;;;;;;;14.83;9.23;;;;;;;;;;6000813;29;20305;-68
2023/12/11 02:20:33;;;;;;;17.63;10.17;;;;;;;;;;6013974;29;20301;-69
2023/12/11 02:23:42;;;;;;;18.10;10.27;;;;;;;;;;6000866;29;20302;-68
2023/12/11 02:26:48;;;;;;;15.23;10.53;;;;;;;;;;6000343;29;20346;-68
2023/12/11 02:29:54;;;;;;;19.97;10.97;;;;;;;;;;6000507;29;20310;-68
2023/12/11 02:32:58;;;;;;;19.63;11.23;;;;;;;;;;6000296;29;20309;-68
2023/12/11 02:36:03;;;;;;;16.63;10.97;;;;;;;;;;6000006;29;20578;-68
2023/12/11 02:39:07;;;;;;;19.30;10.73;;;;;;;;;;5999856;29;20583;-68
2023/12/11 02:42:13;;;;;;;15.50;10.00;;;;;;;;;;6000718;29;20320;-69
2023/12/11 02:45:17;;;;;;;19.93;10.40;;;;;;;;;;6000307;29;20301;-69
2023/12/11 02:48:21;;;;;;;17.80;10.10;;;;;;;;;;6000934;29;20293;-68
2023/12/11 02:51:25;;;;;;;18.30;10.40;;;;;;;;;;6005080;29;20634;-68
2023/12/11 02:54:28;;;;;;;18.23;10.07;;;;;;;;;;5998967;29;20301;-68
2023/12/11 02:57:34;;;;;;;18.93;10.13;;;;;;;;;;5999555;29;20301;-68
2023/12/11 03:00:38;;;;;;;21.63;11.17;;;;;;;;;;6022346;29;20298;-69
2023/12/11 03:03:42;;;;;;;18.70;10.87;;;;;;;;;;6008281;29;20299;-69
2023/12/11 03:06:46;;;;;;;21.30;10.07;;;;;;;;;;6021994;29;20309;-69
2023/12/11 03:09:50;;;;;;;20.47;11.33;;;;;;;;;;6022351;29;20599;-68
2023/12/11 03:12:55;;;;;;;18.10;11.17;;;;;;;;;;6002656;29;20298;-68
2023/12/11 03:15:59;;;;;;;19.97;10.60;;;;;;;;;;5999632;29;20307;-68
2023/12/11 03:19:03;;;;;;;20.17;10.80;;;;;;;;;;5999457;29;20309;-68
2023/12/11 03:22:07;;;;;;;20.07;10.47;;;;;;;;;;5999819;29;20305;-68
2023/12/11 03:25:12;;;;;;;18.37;11.07;;;;;;;;;;5999429;29;20295;-69
2023/12/11 03:28:17;;;;;;;18.03;10.80;;;;;;;;;;5999937;29;20310;-69
2023/12/11 03:31:21;;;;;;;20.20;10.90;;;;;;;;;;5999442;29;20607;-68
2023/12/11 03:34:25;;;;;;;19.70;10.43;;;;;;;;;;6012158;29;20468;-68
2023/12/11 03:37:29;;;;;;;20.40;11.03;;;;;;;;;;6005375;29;20305;-68
2023/12/11 03:40:33;;;;;;;16.63;10.70;;;;;;;;;;5999300;29;20305;-68
2023/12/11 03:43:38;;;;;;;18.93;10.37;;;;;;;;;;6013830;29;20431;-68
2023/12/11 03:46:42;;;;;;;20.67;10.80;;;;;;;;;;6021512;29;20305;-68
2023/12/11 03:49:46;;;;;;;19.33;10.43;;;;;;;;;;5999080;29;20302;-68
2023/12/11 03:52:50;;;;;;;21.70;11.00;;;;;;;;;;6007598;29;20297;-68
2023/12/11 03:55:54;;;;;;;16.70;10.83;;;;;;;;;;6021405;29;20309;-69
2023/12/11 03:58:59;;;;;;;21.30;11.10;;;;;;;;;;6020790;29;20384;-68
2023/12/11 04:02:04;;;;;;;22.17;10.90;;;;;;;;;;6018995;29;20293;-68
2023/12/11 04:05:09;;;;;;;15.90;10.27;;;;;;;;;;6011369;29;20307;-68
2023/12/11 04:08:13;;;;;;;17.73;10.40;;;;;;;;;;6018655;29;20309;-68
2023/12/11 04:11:17;;;;;;;20.27;10.97;;;;;;;;;;6009273;29;20307;-68
2023/12/11 04:14:22;;;;;;;20.97;11.00;;;;;;;;;;5998783;29;20314;-68
2023/12/11 04:17:26;;;;;;;21.43;9.97;;;;;;;;;;5998274;29;20294;-68
2023/12/11 04:20:30;;;;;;;19.17;10.50;;;;;;;;;;6015369;29;20313;-68
2023/12/11 04:23:34;;;;;;;17.00;10.67;;;;;;;;;;6019361;29;20304;-68
2023/12/11 04:26:38;;;;;;;20.67;9.80;;;;;;;;;;6020960;29;20331;-69
2023/12/11 04:29:43;;;;;;;21.77;10.83;;;;;;;;;;6019025;29;20304;-69
2023/12/11 04:32:47;;;;;;;17.37;9.97;;;;;;;;;;6020134;29;20297;-68
2023/12/11 04:35:52;;;;;;;17.07;10.23;;;;;;;;;;6016909;29;20367;-68
2023/12/11 04:38:55;;;;;;;16.87;9.57;;;;;;;;;;5997997;29;20301;-68
2023/12/11 04:41:59;;;;;;;17.17;10.13;;;;;;;;;;5998208;29;20302;-68
2023/12/11 04:45:06;;;;;;;19.13;10.07;;;;;;;;;;5997844;29;20297;-68
2023/12/11 04:48:10;;;;;;;20.27;9.33;;;;;;;;;;5996984;29;20563;-69
2023/12/11 04:51:14;;;;;;;19.97;9.80;;;;;;;;;;5998391;29;20469;-68
2023/12/11 04:54:18;;;;;;;16.30;9.57;;;;;;;;;;5990113;29;20309;-69
2023/12/11 04:57:21;;;;;;;15.70;9.27;;;;;;;;;;5997656;29;20293;-69
2023/12/11 05:00:27;;;;;;;13.30;9.47;;;;;;;;;;6012230;29;20525;-68
2023/12/11 05:03:31;;;;;;;17.70;9.40;;;;;;;;;;6019810;29;20317;-68
2023/12/11 05:06:35;;;;;;;15.43;9.30;;;;;;;;;;6018588;29;20370;-68
2023/12/11 05:09:39;;;;;;;20.63;8.63;;;;;;;;;;6025215;29;20297;-68
2023/12/11 05:12:43;;;;;;;15.73;8.43;;;;;;;;;;5997315;29;20293;-68
2023/12/11 05:15:48;;;;;;;14.83;8.50;;;;;;;;;;5998171;29;20302;-68
2023/12/11 05:18:52;;;;;;;13.53;8.23;;;;;;;;;;5997694;29;20310;-68
2023/12/11 05:21:58;;;;;;;15.60;8.87;;;;;;;;;;6001112;29;20305;-68
2023/12/11 05:25:02;;;;;;;15.30;7.43;;;;;;;;;;6001891;29;20325;-68
2023/12/11 05:28:06;;;;;;;13.43;7.90;;;;;;;;;;6001854;29;20310;-68
2023/12/11 05:31:12;;;;;;;12.70;7.40;;;;;;;;;;6002254;29;20293;-68
2023/12/11 05:34:15;;;;;;;13.70;7.77;;;;;;;;;;6001549;29;20306;-68
2023/12/11 05:37:20;;;;;;;10.97;7.37;;;;;;;;;;6001297;29;20413;-68
2023/12/11 05:40:24;;;;;;;11.13;6.77;;;;;;;;;;6001936;29;20309;-68
2023/12/11 05:43:28;;;;;;;9.83;6.70;;;;;;;;;;6001312;29;20361;-68
2023/12/11 05:46:33;;;;;;;8.27;6.23;;;;;;;;;;6001823;29;20306;-68
2023/12/11 05:49:37;;;;;;;10.30;6.17;;;;;;;;;;6015426;29;20302;-68
2023/12/11 05:52:41;;;;;;;8.10;6.27;;;;;;;;;;6001301;29;20591;-69
2023/12/11 05:55:45;;;;;;;11.77;5.90;;;;;;;;;;5991847;29;20302;-69
2023/12/11 05:58:50;;;;;;;9.90;6.10;;;;;;;;;;6003276;29;20301;-68
2023/12/11 06:01:55;;;;;;;7.97;5.70;;;;;;;;;;6024380;29;20305;-68
2023/12/11 06:04:59;;;;;;;7.03;5.63;;;;;;;;;;6023855;29;20333;-68
2023/12/11 06:08:04;;;;;;;6.90;5.97;;;;;;;;;;6023257;29;20300;-68
2023/12/11 06:11:08;;;;;;;7.67;5.33;;;;;;;;;;6011202;29;20581;-68
2023/12/11 06:14:11;;;;;;;7.73;5.50;;;;;;;;;;6000965;29;20297;-68
2023/12/11 06:17:17;;;;;;;8.80;5.57;;;;;;;;;;6001493;29;20307;-69
2023/12/11 06:20:21;;;;;;;8.33;5.67;;;;;;;;;;6000559;29;20477;-68
2023/12/11 06:23:25;;;;;;;7.83;5.80;;;;;;;;;;6000571;29;20293;-68
2023/12/11 06:26:30;;;;;;;7.10;4.97;;;;;;;;;;6001094;29;20302;-68
2023/12/11 06:29:34;;;;;;;5.77;5.17;;;;;;;;;;6000322;29;20350;-67
2023/12/11 06:32:39;;;;;;;5.50;5.00;;;;;;;;;;5999723;29;20310;-68
2023/12/11 06:35:43;;;;;;;5.30;4.80;;;;;;;;;;6000566;29;20606;-69
2023/12/11 06:38:47;;;;;;;8.23;4.90;;;;;;;;;;6000473;29;20442;-69
2023/12/11 06:41:51;;;;;;;7.60;4.90;;;;;;;;;;6000788;29;20369;-69
2023/12/11 06:44:55;;;;;;;8.80;5.00;;;;;;;;;;6000330;29;20335;-68
2023/12/11 06:48:01;;;;;;;6.07;4.73;;;;;;;;;;6000303;29;20314;-69
2023/12/11 06:51:05;;;;;;;5.83;5.13;;;;;;;;;;5990938;29;20303;-68
2023/12/11 06:54:10;;;;;;;6.80;5.17;;;;;;;;;;6000155;29;20299;-68
2023/12/11 06:57:15;;;;;;;7.03;4.73;;;;;;;;;;6000267;29;20297;-68
2023/12/11 07:00:20;;;;;;;4.40;4.13;;;;;;;;;;6013209;29;20292;-68
2023/12/11 07:03:25;;;;;;;5.40;4.77;;;;;;;;;;6019893;29;20321;-69
2023/12/11 07:06:29;;;;;;;5.27;4.77;;;;;;;;;;5999995;29;20312;-68
2023/12/11 07:09:33;;;;;;;6.97;4.73;;;;;;;;;;6000588;29;20573;-68
2023/12/11 07:12:40;;;;;;;5.47;4.87;;;;;;;;;;6022566;29;20310;-67
2023/12/11 07:15:44;;;;;;;5.33;4.93;;;;;;;;;;6022604;29;20297;-67
2023/12/11 07:18:49;;;;;;;5.87;5.10;;;;;;;;;;6022175;29;20293;-67
2023/12/11 07:21:54;;;;;;;5.67;5.07;;;;;;;;;;6022405;29;20302;-67
2023/12/11 07:24:57;;;;;;;5.80;5.30;;;;;;;;;;6021912;29;20434;-68
2023/12/11 07:28:01;;;;;;;6.53;5.23;;;;;;;;;;6022053;29;20606;-67
2023/12/11 07:31:06;;;;;;;6.90;5.67;;;;;;;;;;6036701;29;20469;-67
2023/12/11 07:34:12;;;;;;;6.63;5.73;;;;;;;;;;6021539;29;20297;-67
2023/12/11 07:37:16;;;;;;;6.37;5.67;;;;;;;;;;6022209;29;20296;-67
2023/12/11 07:40:19;;;;;;;10.07;5.57;;;;;;;;;;6021791;29;20301;-68
2023/12/11 07:43:24;;;;;;;5.73;5.20;;;;;;;;;;6021178;29;20304;-68
2023/12/11 07:46:30;;;;;;;6.50;5.40;;;;;;;;;;6022970;29;20305;-69
2023/12/11 07:49:35;;;;;;;9.47;5.60;;;;;;;;;;6021338;29;20313;-69
2023/12/11 07:52:40;;;;;;;7.20;6.03;;;;;;;;;;6021434;29;20307;-71
2023/12/11 07:55:45;;;;;;;8.87;6.27;;;;;;;;;;6021423;29;20299;-69
2023/12/11 07:58:49;;;;;;;7.93;6.20;;;;;;;;;;6020879;29;20301;-70
2023/12/11 08:01:53;;;;;;;10.33;6.17;;;;;;;;;;6021806;29;20310;-67
2023/12/11 08:04:58;;;;;;;8.87;6.17;;;;;;;;;;6021073;29;20301;-67
2023/12/11 08:08:03;;;;;;;9.20;6.43;;;;;;;;;;6020806;29;20313;-68
2023/12/11 08:11:15;;;;;;;9.43;6.70;;;;;;;;;;6008657;29;20297;-68
2023/12/11 08:14:19;;;;;;;10.37;6.30;;;;;;;;;;5998541;29;20388;-68
2023/12/11 08:17:23;;;;;;;7.87;6.37;;;;;;;;;;5998748;29;20307;-68
2023/12/11 08:20:30;;;;;;;7.77;5.97;;;;;;;;;;5999091;29;20521;-69
2023/12/11 08:23:34;;;;;;;7.60;6.13;;;;;;;;;;5998533;29;20306;-68
2023/12/11 08:26:38;;;;;;;11.70;6.23;;;;;;;;;;5998891;29;20301;-69
2023/12/11 08:29:42;;;;;;;7.80;6.23;;;;;;;;;;6012082;29;20302;-70
2023/12/11 08:32:46;;;;;;;9.17;6.83;;;;;;;;;;5998387;29;20296;-69
2023/12/11 08:35:51;;;;;;;10.53;6.90;;;;;;;;;;5998995;29;20298;-70
2023/12/11 08:38:55;;;;;;;9.70;6.50;;;;;;;;;;5998101;29;20298;-69
2023/12/11 08:41:59;;;;;;;8.90;6.40;;;;;;;;;;5998895;29;20305;-69
2023/12/11 08:45:03;;;;;;;10.93;6.83;;;;;;;;;;5998128;29;20453;-69
2023/12/11 08:48:07;;;;;;;9.30;6.77;;;;;;;;;;5998289;29;20473;-69
2023/12/11 08:51:13;;;;;;;10.83;6.23;;;;;;;;;;5998683;29;20298;-69
2023/12/11 08:54:18;;;;;;;12.47;6.60;;;;;;;;;;5997801;29;20302;-69
2023/12/11 08:57:21;;;;;;;6.77;6.03;;;;;;;;;;5998012;29;20310;-70
2023/12/11 09:00:25;;;;;;;8.30;6.03;;;;;;;;;;6012451;29;20312;-68
2023/12/11 09:03:29;;;;;;;7.77;5.87;;;;;;;;;;6020613;29;20313;-68
2023/12/11 09:06:35;;;;;;;7.00;5.80;;;;;;;;;;6020333;29;20310;-68
2023/12/11 09:09:39;;;;;;;6.97;5.27;;;;;;;;;;6018312;29;20300;-69
2023/12/11 09:12:44;;;;;;;5.80;5.23;;;;;;;;;;5997398;29;20303;-69
2023/12/11 09:15:48;;;;;;;5.70;5.20;;;;;;;;;;5998148;29;20298;-69
2023/12/11 09:18:52;;;;;;;4.60;4.30;;;;;;;;;;5997734;29;20559;-69
2023/12/11 09:21:57;;;;;;;5.23;4.73;;;;;;;;;;5998287;29;20314;-69
2023/12/11 09:25:01;;;;;;;4.43;4.10;;;;;;;;;;5997974;29;20328;-69
2023/12/11 09:28:05;;;;;;;4.17;3.87;;;;;;;;;;5997439;29;20310;-69
2023/12/11 09:31:09;;;;;;;4.00;3.77;;;;;;;;;;5997802;29;20608;-68
2023/12/11 09:34:13;;;;;;;3.50;3.37;;;;;;;;;;5996257;29;20623;-69
2023/12/11 09:37:19;;;;;;;4.00;3.80;;;;;;;;;;5997331;29;20302;-69
2023/12/11 09:40:23;;;;;;;3.37;3.17;;;;;;;;;;5997792;29;20310;-69
2023/12/11 09:43:28;;;;;;;3.87;3.57;;;;;;;;;;5997212;29;20590;-69
2023/12/11 09:46:35;;;;;;;3.53;3.23;;;;;;;;;;5997749;29;20306;-68
2023/12/11 09:49:39;;;;;;;3.20;3.00;;;;;;;;;;5997121;29;20307;-69
2023/12/11 09:52:44;;;;;;;3.30;3.20;;;;;;;;;;5997193;29;20298;-69
2023/12/11 09:55:49;;;;;;;3.17;2.90;;;;;;;;;;5997818;29;20341;-68
2023/12/11 09:58:52;;;;;;;3.10;2.90;;;;;;;;;;5999905;29;20303;-69
2023/12/11 10:01:58;;;;;;;3.13;3.03;;;;;;;;;;6019795;29;20308;-68
2023/12/11 10:05:03;;;;;;;2.97;2.80;;;;;;;;;;6019355;29;20502;-68
2023/12/11 10:08:10;;;;;;;3.00;2.80;;;;;;;;;;6021654;29;20302;-68
2023/12/11 10:11:16;;;;;;;4.33;3.00;;;;;;;;;;6010301;29;20318;-68
2023/12/11 10:14:19;;;;;;;3.13;2.77;;;;;;;;;;6000780;29;20291;-69
2023/12/11 10:17:23;;;;;;;2.83;2.70;;;;;;;;;;6000587;29;20302;-69
2023/12/11 10:20:27;;;;;;;2.83;2.73;;;;;;;;;;6001344;29;20474;-68
2023/12/11 10:23:33;;;;;;;2.70;2.60;;;;;;;;;;6000614;29;20310;-68
2023/12/11 10:26:39;;;;;;;3.30;2.77;;;;;;;;;;6001162;29;20299;-69
2023/12/11 10:29:42;;;;;;;3.03;2.83;;;;;;;;;;6000250;29;20298;-69
2023/12/11 10:32:46;;;;;;;2.50;2.40;;;;;;;;;;6000323;29;20310;-68
2023/12/11 10:35:51;;;;;;;2.70;2.43;;;;;;;;;;6001197;29;20312;-68
2023/12/11 10:39:08;;;;;;;3.50;2.50;;;;;;;;;;6000667;29;20616;-69
2023/12/11 10:42:17;;;;;;;2.33;2.23;;;;;;;;;;6000815;29;20303;-69
2023/12/11 10:45:21;;;;;;;2.43;2.17;;;;;;;;;;6000170;29;20310;-69
2023/12/11 10:48:25;;;;;;;2.53;2.43;;;;;;;;;;6000564;29;20290;-70
2023/12/11 10:51:29;;;;;;;2.40;2.30;;;;;;;;;;6000554;29;20302;-70
2023/12/11 10:54:37;;;;;;;2.10;2.10;;;;;;;;;;6000548;29;20307;-70
2023/12/11 10:57:41;;;;;;;2.17;2.17;;;;;;;;;;6000165;29;20299;-69
2023/12/11 11:00:45;;;;;;;2.93;2.60;;;;;;;;;;6017457;29;20302;-70
2023/12/11 11:03:50;;;;;;;2.27;2.27;;;;;;;;;;6022750;29;20293;-68
2023/12/11 11:06:57;;;;;;;2.40;2.20;;;;;;;;;;6022992;29;20310;-69
2023/12/11 11:10:06;;;;;;;2.90;2.60;;;;;;;;;;6018617;29;20322;-70
2023/12/11 11:13:19;;;;;;;2.80;2.57;;;;;;;;;;6000350;29;20246;-68
2023/12/11 11:16:23;;;;;;;2.87;2.77;;;;;;;;;;6000680;29;20302;-69
2023/12/11 11:19:29;;;;;;;2.83;2.73;;;;;;;;;;5998518;29;20302;-69
2023/12/11 11:22:33;;;;;;;2.73;2.63;;;;;;;;;;6021721;29;20583;-68
2023/12/11 11:25:50;;;;;;;3.60;2.83;;;;;;;;;;6022172;29;20301;-69
2023/12/11 11:28:55;;;;;;;3.30;3.10;;;;;;;;;;6022156;29;20300;-69
2023/12/11 11:32:00;;;;;;;3.50;3.20;;;;;;;;;;6028099;29;20300;-69
2023/12/11 11:35:05;;;;;;;3.70;3.40;;;;;;;;;;6016597;29;20310;-68
2023/12/11 11:38:10;;;;;;;4.20;3.80;;;;;;;;;;6012101;29;20305;-69
2023/12/11 11:41:24;;;;;;;4.23;3.93;;;;;;;;;;6021544;29;20305;-67
2023/12/11 11:44:28;;;;;;;5.50;3.87;;;;;;;;;;6021571;29;20313;-69
2023/12/11 11:47:32;;;;;;;4.63;4.33;;;;;;;;;;6021322;29;20302;-67
2023/12/11 11:50:37;;;;;;;4.03;3.60;;;;;;;;;;6021857;29;20686;-69
2023/12/11 11:53:42;;;;;;;4.83;4.33;;;;;;;;;;6021834;29;20320;-68
2023/12/11 11:56:47;;;;;;;4.50;4.07;;;;;;;;;;6021188;29;20298;-67
2023/12/11 11:59:51;;;;;;;4.73;4.40;;;;;;;;;;6020880;29;20301;-68
2023/12/11 12:02:57;;;;;;;4.97;4.50;;;;;;;;;;6021168;29;20302;-68
2023/12/11 12:06:01;;;;;;;5.50;5.00;;;;;;;;;;6021327;29;20467;-68
2023/12/11 12:09:07;;;;;;;8.07;5.60;;;;;;;;;;6020999;29;20301;-68
2023/12/11 12:12:16;;;;;;;7.40;5.63;;;;;;;;;;6000692;29;20309;-69
2023/12/11 12:15:20;;;;;;;9.67;5.50;;;;;;;;;;5998087;29;20306;-68
2023/12/11 12:18:24;;;;;;;8.10;6.03;;;;;;;;;;5998568;29;20297;-69
2023/12/11 12:21:28;;;;;;;5.67;5.10;;;;;;;;;;5998634;29;20314;-68
2023/12/11 12:24:32;;;;;;;6.83;5.50;;;;;;;;;;5998572;29;20300;-68
2023/12/11 12:27:37;;;;;;;8.47;5.30;;;;;;;;;;5998366;29;20298;-67
2023/12/11 12:30:41;;;;;;;7.90;5.97;;;;;;;;;;5997734;29;20301;-68
2023/12/11 12:33:46;;;;;;;8.13;5.80;;;;;;;;;;5998489;29;20300;-67
2023/12/11 12:36:55;;;;;;;6.17;5.27;;;;;;;;;;5998832;29;20471;-69
2023/12/11 12:39:59;;;;;;;9.17;5.57;;;;;;;;;;5998217;29;20311;-68
2023/12/11 12:43:11;;;;;;;7.47;5.10;;;;;;;;;;5998317;29;20358;-68
2023/12/11 12:46:15;;;;;;;9.03;5.53;;;;;;;;;;5998210;29;20304;-67
2023/12/11 12:49:21;;;;;;;7.37;5.97;;;;;;;;;;5987043;29;20354;-68
2023/12/11 12:52:26;;;;;;;8.90;6.27;;;;;;;;;;5998121;29;20318;-68
2023/12/11 12:55:30;;;;;;;7.03;5.43;;;;;;;;;;5998718;29;20305;-69
2023/12/11 12:58:35;;;;;;;5.90;5.40;;;;;;;;;;6012084;29;20595;-69
2023/12/11 13:01:41;;;;;;;7.53;5.60;;;;;;;;;;6020436;29;20306;-69
2023/12/11 13:04:52;;;;;;;8.57;5.50;;;;;;;;;;6020367;29;20314;-69
2023/12/11 13:07:57;;;;;;;6.00;5.50;;;;;;;;;;6019584;29;20309;-69
2023/12/11 13:11:01;;;;;;;5.87;5.33;;;;;;;;;;6008935;29;20679;-68
2023/12/11 13:14:08;;;;;;;6.13;5.43;;;;;;;;;;5997079;29;20478;-69
2023/12/11 13:17:11;;;;;;;5.73;5.23;;;;;;;;;;5998243;29;20306;-69
2023/12/11 13:20:15;;;;;;;7.03;5.37;;;;;;;;;;5997949;29;20382;-69
2023/12/11 13:23:20;;;;;;;5.93;5.03;;;;;;;;;;5997818;29;20306;-69
2023/12/11 13:26:25;;;;;;;9.00;5.10;;;;;;;;;;5998127;29;20302;-69
2023/12/11 13:29:30;;;;;;;5.83;5.27;;;;;;;;;;5997717;29;20302;-69
2023/12/11 13:32:34;;;;;;;9.23;5.77;;;;;;;;;;5996427;29;20302;-69
2023/12/11 13:35:38;;;;;;;7.10;6.40;;;;;;;;;;5997870;29;20303;-69
2023/12/11 13:38:42;;;;;;;6.30;5.70;;;;;;;;;;5997295;29;20310;-69
2023/12/11 13:41:46;;;;;;;9.60;6.10;;;;;;;;;;5999746;29;20385;-68
2023/12/11 13:44:56;;;;;;;7.90;6.33;;;;;;;;;;6001334;29;20373;-69
2023/12/11 13:48:00;;;;;;;9.60;6.37;;;;;;;;;;6001457;29;20306;-69
2023/12/11 13:51:05;;;;;;;7.07;5.73;;;;;;;;;;6015664;29;20298;-68
2023/12/11 13:54:09;;;;;;;8.73;6.37;;;;;;;;;;6015414;29;20317;-68
2023/12/11 13:57:13;;;;;;;9.10;5.83;;;;;;;;;;6001683;29;20305;-68
2023/12/11 14:00:19;;;;;;;8.20;6.07;;;;;;;;;;6018954;29;20501;-69
2023/12/11 14:03:23;;;;;;;8.67;6.27;;;;;;;;;;6004319;29;20293;-68
2023/12/11 14:06:26;;;;;;;8.60;6.07;;;;;;;;;;6001231;29;20310;-69
2023/12/11 14:09:32;;;;;;;9.63;6.27;;;;;;;;;;6001384;29;20432;-69
2023/12/11 14:12:38;;;;;;;7.47;6.57;;;;;;;;;;6022823;29;20297;-69
2023/12/11 14:15:45;;;;;;;7.70;6.47;;;;;;;;;;6024305;29;20312;-68
2023/12/11 14:18:49;;;;;;;8.20;6.37;;;;;;;;;;6023530;29;20301;-68
2023/12/11 14:21:53;;;;;;;8.03;6.00;;;;;;;;;;6023884;29;20301;-68
2023/12/11 14:24:57;;;;;;;7.87;6.03;;;;;;;;;;6023611;29;20318;-69
2023/12/11 14:28:03;;;;;;;6.10;5.50;;;;;;;;;;6023455;29;20297;-68
2023/12/11 14:31:12;;;;;;;7.70;6.03;;;;;;;;;;6023507;29;20305;-68
2023/12/11 14:34:16;;;;;;;7.30;5.60;;;;;;;;;;6023450;29;20559;-68
2023/12/11 14:37:20;;;;;;;5.30;4.90;;;;;;;;;;6023184;29;20302;-69
2023/12/11 14:40:24;;;;;;;8.47;5.60;;;;;;;;;;6023524;29;20334;-68
2023/12/11 14:43:27;;;;;;;8.37;5.60;;;;;;;;;;6022995;29;20488;-68
2023/12/11 14:46:33;;;;;;;7.63;5.40;;;;;;;;;;6023331;29;20294;-68
2023/12/11 14:49:36;;;;;;;5.50;5.10;;;;;;;;;;6022890;29;20308;-68
2023/12/11 14:52:41;;;;;;;5.17;4.70;;;;;;;;;;6021820;29;20550;-68
2023/12/11 14:55:45;;;;;;;5.37;4.97;;;;;;;;;;6023106;29;20298;-68
2023/12/11 14:58:50;;;;;;;5.70;5.20;;;;;;;;;;6022371;29;20476;-68
2023/12/11 15:01:55;;;;;;;9.43;4.93;;;;;;;;;;6022445;29;20316;-68
2023/12/11 15:04:59;;;;;;;6.63;4.73;;;;;;;;;;6022639;29;20310;-69
2023/12/11 15:08:03;;;;;;;5.10;4.70;;;;;;;;;;6022199;29;20312;-68
2023/12/11 15:11:07;;;;;;;4.93;4.47;;;;;;;;;;6010161;29;20302;-68
2023/12/11 15:14:12;;;;;;;4.80;4.50;;;;;;;;;;5999592;29;20492;-68
2023/12/11 15:17:18;;;;;;;5.07;4.67;;;;;;;;;;6013519;29;20301;-68
2023/12/11 15:20:22;;;;;;;4.37;4.07;;;;;;;;;;6022150;29;20305;-68
2023/12/11 15:23:26;;;;;;;4.13;3.77;;;;;;;;;;6021672;29;20297;-68
2023/12/11 15:26:30;;;;;;;6.87;4.50;;;;;;;;;;6015865;29;20354;-68
2023/12/11 15:29:36;;;;;;;5.77;4.43;;;;;;;;;;5999455;29;20326;-68
2023/12/11 15:32:46;;;;;;;4.97;4.10;;;;;;;;;;6005855;29;20471;-68
2023/12/11 15:35:51;;;;;;;4.50;4.20;;;;;;;;;;6000000;29;20300;-69
2023/12/11 15:38:55;;;;;;;4.80;4.50;;;;;;;;;;5999216;29;20313;-69
2023/12/11 15:41:59;;;;;;;5.00;4.63;;;;;;;;;;5999696;29;20498;-69
2023/12/11 15:45:03;;;;;;;4.93;4.13;;;;;;;;;;5999290;29;20417;-69
2023/12/11 15:48:09;;;;;;;4.63;4.30;;;;;;;;;;5999329;29;20302;-68
2023/12/11 15:51:27;;;;;;;4.57;4.27;;;;;;;;;;5999338;29;20300;-69
2023/12/11 15:54:31;;;;;;;4.73;4.43;;;;;;;;;;5998983;29;20302;-69
2023/12/11 15:57:35;;;;;;;4.83;4.33;;;;;;;;;;5999009;29;20301;-68
2023/12/11 16:00:39;;;;;;;6.73;5.40;;;;;;;;;;6015274;29;20348;-69
2023/12/11 16:03:44;;;;;;;5.17;4.70;;;;;;;;;;6021315;29;20301;-69
2023/12/11 16:06:48;;;;;;;5.67;4.73;;;;;;;;;;6020872;29;20301;-69
2023/12/11 16:09:52;;;;;;;7.63;4.23;;;;;;;;;;6017556;29;20309;-68
2023/12/11 16:12:56;;;;;;;4.97;4.53;;;;;;;;;;5998593;29;20300;-68
2023/12/11 16:16:00;;;;;;;4.80;4.37;;;;;;;;;;5999203;29;20468;-69
2023/12/11 16:19:06;;;;;;;4.20;4.00;;;;;;;;;;5998599;29;20310;-68
2023/12/11 16:22:10;;;;;;;4.70;4.40;;;;;;;;;;5998642;29;20300;-68
2023/12/11 16:25:14;;;;;;;3.93;3.63;;;;;;;;;;5998311;29;20305;-68
2023/12/11 16:28:17;;;;;;;4.20;3.87;;;;;;;;;;5998308;29;20277;-67
2023/12/11 16:31:22;;;;;;;4.43;4.03;;;;;;;;;;5998616;29;20405;-68
2023/12/11 16:34:31;;;;;;;4.27;3.97;;;;;;;;;;5998659;29;20498;-69
2023/12/11 16:37:35;;;;;;;4.10;3.90;;;;;;;;;;5998461;29;20328;-68
2023/12/11 16:40:40;;;;;;;4.00;3.70;;;;;;;;;;5999068;29;20300;-68
2023/12/11 16:43:47;;;;;;;3.87;3.57;;;;;;;;;;5998471;29;20294;-69
2023/12/11 16:46:51;;;;;;;4.27;3.70;;;;;;;;;;5998729;29;20296;-69
2023/12/11 16:49:57;;;;;;;4.63;4.23;;;;;;;;;;5997948;29;20507;-70
2023/12/11 16:53:11;;;;;;;4.57;4.13;;;;;;;;;;5998370;29;20301;-69
2023/12/11 16:56:15;;;;;;;4.10;3.87;;;;;;;;;;5998688;29;20541;-69
2023/12/11 16:59:19;;;;;;;3.83;3.63;;;;;;;;;;6004115;29;20308;-69
2023/12/11 17:02:23;;;;;;;3.47;3.20;;;;;;;;;;6020470;29;20295;-69
2023/12/11 17:05:28;;;;;;;3.63;3.33;;;;;;;;;;6020954;29;20325;-69
2023/12/11 17:08:32;;;;;;;3.87;3.63;;;;;;;;;;6020084;29;20296;-68
2023/12/11 17:11:36;;;;;;;4.00;3.70;;;;;;;;;;6004703;29;20568;-69
2023/12/11 17:14:40;;;;;;;3.67;3.47;;;;;;;;;;5998108;29;20300;-69
2023/12/11 17:17:44;;;;;;;4.10;3.80;;;;;;;;;;6001106;29;20308;-69
2023/12/11 17:20:50;;;;;;;3.87;3.77;;;;;;;;;;6013550;29;20296;-70
2023/12/11 17:23:54;;;;;;;3.87;3.67;;;;;;;;;;6024837;29;20303;-70
2023/12/11 17:26:57;;;;;;;4.20;3.90;;;;;;;;;;6020740;29;20312;-70
2023/12/11 17:30:01;;;;;;;4.07;3.87;;;;;;;;;;6002085;29;20301;-71
2023/12/11 17:33:07;;;;;;;5.07;4.50;;;;;;;;;;6001893;29;20300;-70
2023/12/11 17:36:12;;;;;;;5.27;4.77;;;;;;;;;;6002558;29;20309;-70
2023/12/11 17:39:16;;;;;;;3.87;3.67;;;;;;;;;;6001641;29;20309;-70
2023/12/11 17:42:20;;;;;;;3.93;3.73;;;;;;;;;;6001336;29;20320;-71
2023/12/11 17:45:26;;;;;;;4.20;3.73;;;;;;;;;;6002225;29;20304;-69
2023/12/11 17:48:29;;;;;;;4.50;3.90;;;;;;;;;;6001463;29;20627;-70
2023/12/11 17:51:35;;;;;;;4.20;3.90;;;;;;;;;;6000863;29;20297;-71
2023/12/11 17:54:39;;;;;;;4.63;4.23;;;;;;;;;;6024285;29;20296;-70
2023/12/11 17:57:43;;;;;;;4.40;4.00;;;;;;;;;;6023755;29;20291;-70
2023/12/11 18:00:46;;;;;;;4.60;3.70;;;;;;;;;;6024745;29;20300;-70
2023/12/11 18:03:51;;;;;;;5.40;4.40;;;;;;;;;;6023671;29;20291;-70
2023/12/11 18:06:56;;;;;;;3.70;3.50;;;;;;;;;;6024028;29;20314;-70
2023/12/11 18:10:00;;;;;;;4.07;3.67;;;;;;;;;;6019771;29;20306;-70
2023/12/11 18:13:04;;;;;;;3.83;3.57;;;;;;;;;;6001233;29;20304;-70
2023/12/11 18:16:08;;;;;;;3.40;3.17;;;;;;;;;;6001636;29;20300;-70
2023/12/11 18:19:13;;;;;;;3.97;3.73;;;;;;;;;;6000933;29;20296;-70